Diamond Point, New York
Current Conditions -  °F | °C
As of 9:38 AM on Saturday 25 Oct 2014 (Local Time) from KGFL Reporting Station
Haze Haze  
Wind Chill: 38°   Ceiling: 200
Heat Index: 42°   Visibility: 3mi
Dew Point: 41°   Wind: 6mph
Humidity: 96%   Direction: 150°SSE
Pressure: 29.8"   Gusts: NA
Location:  43.48°N, 73.69°W
Report Text: KGFL 251338Z AUTO 15005KT 3SM BR OVC002 06/05 A2980 RMK AO2 T00560050
Loading
Personal Weather Stations






























Interactive Weather Map
Tropical Storm Tracking
New forecast layout! Learn more

10-Day Weather Forecast

Advertisements
Track Severe Weather on mobile